createdAt,value
2019-01-28T00:01:19.653Z,39.27
2019-01-28T00:04:23.549Z,34.30
2019-01-28T00:07:27.089Z,38.03
2019-01-28T00:10:30.645Z,34.50
2019-01-28T00:13:34.284Z,34.17
2019-01-28T00:16:37.954Z,35.90
2019-01-28T00:19:41.522Z,31.73
2019-01-28T00:22:45.089Z,32.27
2019-01-28T00:25:48.916Z,33.00
2019-01-28T00:28:52.498Z,32.00
2019-01-28T00:31:56.151Z,33.40
2019-01-28T00:34:59.720Z,28.27
2019-01-28T00:38:03.354Z,28.50
2019-01-28T00:41:06.924Z,26.23
2019-01-28T00:44:10.482Z,26.73
2019-01-28T00:47:14.061Z,27.83
2019-01-28T00:50:17.707Z,28.17
2019-01-28T00:53:21.262Z,26.10
2019-01-28T00:56:24.906Z,27.00
2019-01-28T00:59:28.462Z,24.83
2019-01-28T01:02:32.110Z,26.37
2019-01-28T01:05:35.768Z,23.07
2019-01-28T01:08:39.344Z,21.43
2019-01-28T01:11:42.911Z,23.37
2019-01-28T01:14:46.498Z,22.63
2019-01-28T01:17:50.353Z,24.50
2019-01-28T01:20:53.926Z,22.37
2019-01-28T01:23:57.486Z,22.10
2019-01-28T01:27:01.472Z,21.00
2019-01-28T01:30:06.755Z,20.37
2019-01-28T01:33:10.326Z,19.77
2019-01-28T01:36:13.903Z,17.27
2019-01-28T01:39:17.456Z,16.90
2019-01-28T01:42:21.458Z,18.83
2019-01-28T01:45:25.024Z,18.37
2019-01-28T01:48:28.667Z,17.50
2019-01-28T01:51:32.321Z,36.30
2019-01-28T01:54:36.138Z,16.30
2019-01-28T01:57:39.980Z,14.97
2019-01-28T02:00:43.554Z,16.47
2019-01-28T02:03:47.106Z,16.53
2019-01-28T02:06:50.757Z,15.43
2019-01-28T02:09:54.331Z,15.50
2019-01-28T02:12:57.896Z,15.47
2019-01-28T02:16:02.010Z,13.07
2019-01-28T02:19:05.569Z,16.90
2019-01-28T02:22:09.215Z,17.60
2019-01-28T02:25:13.184Z,12.70
2019-01-28T02:28:16.982Z,17.03
2019-01-28T02:31:20.599Z,12.40
2019-01-28T02:34:24.167Z,12.20
2019-01-28T02:37:27.731Z,11.20
2019-01-28T02:40:31.291Z,12.30
2019-01-28T02:43:34.853Z,11.93
2019-01-28T02:46:38.420Z,11.73
2019-01-28T02:49:41.985Z,14.23
2019-01-28T02:52:46.035Z,11.43
2019-01-28T02:55:49.660Z,11.93
2019-01-28T02:58:53.205Z,15.20
2019-01-28T03:01:56.782Z,11.07
2019-01-28T03:05:00.502Z,9.77
2019-01-28T03:08:04.525Z,14.63
2019-01-28T03:11:10.437Z,9.77
2019-01-28T03:14:13.764Z,11.00
2019-01-28T03:17:17.356Z,8.23
2019-01-28T03:20:21.099Z,9.70
2019-01-28T03:23:26.219Z,8.90
2019-01-28T03:26:29.794Z,10.13
2019-01-28T03:29:33.353Z,10.77
2019-01-28T03:32:37.251Z,9.73
2019-01-28T03:35:40.872Z,9.07
2019-01-28T03:38:44.744Z,8.97
2019-01-28T03:41:48.293Z,9.87
2019-01-28T03:44:51.877Z,11.20
2019-01-28T03:47:55.552Z,10.57
2019-01-28T03:50:59.127Z,8.80
2019-01-28T03:54:02.761Z,7.67
2019-01-28T03:57:06.316Z,11.63
2019-01-28T04:00:13.509Z,6.40
2019-01-28T04:03:17.078Z,9.27
2019-01-28T04:06:20.876Z,6.60
2019-01-28T04:09:24.458Z,7.93
2019-01-28T04:12:28.395Z,8.90
2019-01-28T04:15:32.650Z,7.20
2019-01-28T04:18:36.313Z,7.67
2019-01-28T04:21:40.237Z,7.43
2019-01-28T04:24:44.090Z,7.67
2019-01-28T04:27:47.641Z,7.37
2019-01-28T04:30:51.507Z,8.27
2019-01-28T04:33:55.064Z,6.47
2019-01-28T04:36:58.617Z,8.17
2019-01-28T04:40:02.201Z,6.67
2019-01-28T04:43:05.838Z,12.03
2019-01-28T04:46:09.524Z,6.67
2019-01-28T04:49:13.098Z,6.90
2019-01-28T04:52:16.700Z,5.90
2019-01-28T04:55:20.341Z,5.53
2019-01-28T04:58:24.183Z,6.63
2019-01-28T05:01:27.739Z,5.33
2019-01-28T05:04:33.682Z,7.83
2019-01-28T05:07:37.188Z,7.33
2019-01-28T05:10:40.757Z,6.00
2019-01-28T05:13:44.474Z,8.10
2019-01-28T05:16:48.045Z,7.97
2019-01-28T05:19:52.094Z,8.00
2019-01-28T05:22:55.659Z,25.73
2019-01-28T05:25:59.243Z,34.50
2019-01-28T05:29:02.816Z,23.90
2019-01-28T05:32:06.544Z,24.47
2019-01-28T05:35:11.199Z,19.80
2019-01-28T05:38:14.766Z,20.90
2019-01-28T05:41:18.665Z,17.00
2019-01-28T05:44:22.217Z,17.97
2019-01-28T05:47:26.124Z,14.87
2019-01-28T05:50:29.967Z,49.83
2019-01-28T05:53:33.527Z,21.63
2019-01-28T05:56:37.088Z,19.00
2019-01-28T05:59:40.737Z,16.17
2019-01-28T06:02:44.612Z,16.67
2019-01-28T06:05:48.204Z,49.27
2019-01-28T06:08:51.763Z,99.97
2019-01-28T06:11:55.330Z,68.53
2019-01-28T06:14:59.235Z,71.60
2019-01-28T06:18:02.802Z,67.20
2019-01-28T06:21:06.377Z,55.87
2019-01-28T06:24:09.940Z,51.37
2019-01-28T06:27:13.532Z,50.70
2019-01-28T06:30:19.943Z,47.73
2019-01-28T06:33:23.559Z,44.37
2019-01-28T06:36:27.174Z,41.07
2019-01-28T06:39:30.733Z,40.30
2019-01-28T06:42:34.301Z,40.00
2019-01-28T06:45:37.900Z,36.07
2019-01-28T06:48:41.749Z,37.17
2019-01-28T06:51:45.330Z,33.43
2019-01-28T06:54:48.889Z,33.47
2019-01-28T06:57:52.473Z,33.00
2019-01-28T07:00:56.042Z,34.50
2019-01-28T07:03:59.614Z,28.57
2019-01-28T07:07:03.186Z,30.80
2019-01-28T07:10:07.447Z,26.57
2019-01-28T07:13:11.032Z,25.33
2019-01-28T07:16:14.608Z,25.83
2019-01-28T07:19:18.213Z,25.60
2019-01-28T07:22:21.857Z,24.87
2019-01-28T07:25:25.422Z,21.93
2019-01-28T07:28:29.302Z,22.10
2019-01-28T07:31:32.886Z,22.77
2019-01-28T07:34:36.793Z,21.23
2019-01-28T07:37:40.952Z,20.13
2019-01-28T07:40:44.612Z,22.47
2019-01-28T07:43:48.183Z,22.20
2019-01-28T07:46:52.071Z,20.47
2019-01-28T07:49:55.647Z,17.70
2019-01-28T07:52:59.225Z,18.57
2019-01-28T07:56:02.805Z,18.83
2019-01-28T07:59:06.446Z,15.67
2019-01-28T08:02:10.101Z,16.50
2019-01-28T08:05:14.545Z,17.37
2019-01-28T08:08:18.237Z,15.77
2019-01-28T08:11:21.817Z,16.57
2019-01-28T08:14:25.766Z,16.33
2019-01-28T08:17:29.398Z,14.03
2019-01-28T08:20:32.989Z,15.60
2019-01-28T08:23:36.573Z,14.17
2019-01-28T08:26:40.197Z,13.13
2019-01-28T08:29:43.762Z,12.97
2019-01-28T08:32:47.319Z,12.37
2019-01-28T08:35:51.138Z,12.50
2019-01-28T08:38:54.692Z,11.83
2019-01-28T08:41:58.267Z,12.60
2019-01-28T08:45:01.834Z,11.90
2019-01-28T08:48:05.651Z,12.70
2019-01-28T08:51:09.218Z,11.77
2019-01-28T08:54:12.900Z,11.03
2019-01-28T08:57:16.462Z,11.27
2019-01-28T09:00:25.564Z,10.23
2019-01-28T09:03:29.201Z,11.93
2019-01-28T09:06:32.765Z,9.50
2019-01-28T09:09:36.828Z,10.97
2019-01-28T09:12:40.422Z,10.00
2019-01-28T09:15:44.704Z,11.47
2019-01-28T09:18:48.261Z,11.77
2019-01-28T09:21:51.834Z,9.37
2019-01-28T09:24:55.421Z,10.67
2019-01-28T09:27:58.974Z,9.37
2019-01-28T09:31:02.619Z,8.60
2019-01-28T09:34:06.179Z,9.17
2019-01-28T09:37:09.821Z,9.57
2019-01-28T09:40:15.411Z,7.73
2019-01-28T09:43:19.259Z,8.00
2019-01-28T09:46:22.885Z,8.80
2019-01-28T09:49:26.528Z,8.40
2019-01-28T09:52:30.485Z,8.23
2019-01-28T09:55:34.046Z,8.03
2019-01-28T09:58:37.675Z,7.47
2019-01-28T10:01:41.250Z,8.00
2019-01-28T10:04:44.807Z,7.80
2019-01-28T10:07:48.380Z,6.33
2019-01-28T10:10:52.323Z,9.03
2019-01-28T10:13:56.344Z,7.17
2019-01-28T10:17:00.577Z,6.43
2019-01-28T10:20:05.789Z,6.87
2019-01-28T10:23:09.523Z,6.63
2019-01-28T10:26:13.115Z,6.90
2019-01-28T10:29:16.672Z,6.47
2019-01-28T10:32:20.796Z,8.03
2019-01-28T10:35:25.072Z,6.73
2019-01-28T10:38:28.637Z,6.33
2019-01-28T10:41:32.258Z,6.67
2019-01-28T10:44:35.806Z,5.60
2019-01-28T10:47:39.813Z,5.90
2019-01-28T10:50:44.338Z,5.00
2019-01-28T10:53:48.242Z,5.57
2019-01-28T10:56:51.808Z,4.83
2019-01-28T10:59:55.368Z,6.07
2019-01-28T11:02:59.358Z,5.23
2019-01-28T11:06:02.910Z,5.47
2019-01-28T11:09:08.067Z,5.10
2019-01-28T11:12:11.865Z,5.73
2019-01-28T11:15:18.568Z,5.00
2019-01-28T11:18:24.955Z,4.60
2019-01-28T11:21:28.556Z,4.80
2019-01-28T11:24:32.206Z,4.13
2019-01-28T11:27:35.940Z,7.10
2019-01-28T11:30:43.971Z,4.87
2019-01-28T11:33:47.542Z,4.10
2019-01-28T11:36:51.180Z,4.47
2019-01-28T11:39:55.297Z,4.03
2019-01-28T11:42:58.896Z,6.13
2019-01-28T11:46:05.004Z,5.10
2019-01-28T11:49:08.851Z,4.50
2019-01-28T11:52:12.455Z,4.80
2019-01-28T11:55:16.011Z,3.97
2019-01-28T11:58:19.591Z,3.93
2019-01-28T12:01:26.616Z,3.83
2019-01-28T12:04:30.195Z,5.00
2019-01-28T12:07:33.749Z,3.70
2019-01-28T12:10:37.383Z,4.13
2019-01-28T12:13:40.949Z,3.90
2019-01-28T12:16:44.502Z,4.17
2019-01-28T12:19:48.081Z,3.60
2019-01-28T12:22:51.864Z,3.83
2019-01-28T12:25:55.452Z,4.00
2019-01-28T12:28:59.096Z,3.97
2019-01-28T12:32:02.663Z,3.10
2019-01-28T12:35:07.510Z,4.70
2019-01-28T12:38:11.071Z,4.17
2019-01-28T12:41:17.452Z,3.43
2019-01-28T12:44:20.211Z,3.77
2019-01-28T12:47:23.777Z,3.43
2019-01-28T12:50:27.602Z,3.20
2019-01-28T12:53:31.175Z,2.87
2019-01-28T12:56:34.801Z,2.67
2019-01-28T12:59:38.400Z,3.97
2019-01-28T13:02:41.954Z,2.97
2019-01-28T13:05:45.663Z,3.00
2019-01-28T13:08:49.287Z,2.77
2019-01-28T13:11:52.842Z,4.20
2019-01-28T13:14:56.392Z,2.63
2019-01-28T13:18:00.429Z,3.17
2019-01-28T13:21:04.007Z,2.90
2019-01-28T13:24:07.566Z,2.50
2019-01-28T13:27:11.464Z,4.93
2019-01-28T13:30:17.546Z,2.37
2019-01-28T13:33:21.205Z,2.63
2019-01-28T13:36:24.787Z,3.23
2019-01-28T13:39:28.328Z,3.07
2019-01-28T13:42:31.897Z,2.37
2019-01-28T13:45:35.546Z,2.93
2019-01-28T13:48:39.116Z,3.40
2019-01-28T13:51:43.062Z,2.53
2019-01-28T13:54:46.636Z,2.60
2019-01-28T13:57:50.380Z,3.13
2019-01-28T14:00:54.001Z,3.33
2019-01-28T14:03:58.614Z,2.80
2019-01-28T14:07:02.341Z,2.50
2019-01-28T14:10:07.164Z,2.50
2019-01-28T14:13:10.756Z,2.20
2019-01-28T14:16:14.309Z,2.97
2019-01-28T14:19:17.870Z,2.00
2019-01-28T14:22:21.554Z,3.03
2019-01-28T14:25:25.282Z,2.57
2019-01-28T14:28:29.284Z,3.07
2019-01-28T14:31:32.860Z,2.37
2019-01-28T14:34:37.417Z,2.53
2019-01-28T14:37:40.990Z,2.60
2019-01-28T14:40:46.209Z,3.83
2019-01-28T14:43:49.777Z,2.27
2019-01-28T14:46:53.332Z,2.33
2019-01-28T14:49:57.006Z,1.80
2019-01-28T14:53:00.605Z,2.00
2019-01-28T14:56:04.223Z,1.87
2019-01-28T14:59:08.090Z,2.33
2019-01-28T15:02:11.738Z,2.00
2019-01-28T15:05:15.619Z,3.40
2019-01-28T15:08:19.188Z,2.80
2019-01-28T15:11:22.745Z,2.53
2019-01-28T15:14:26.305Z,2.07
2019-01-28T15:17:30.194Z,1.83
2019-01-28T15:20:33.834Z,2.77
2019-01-28T15:23:37.388Z,2.47
2019-01-28T15:26:40.973Z,2.50
2019-01-28T15:29:45.552Z,2.27
2019-01-28T15:32:49.766Z,2.30
2019-01-28T15:35:53.350Z,2.33
2019-01-28T15:38:56.918Z,2.10
2019-01-28T15:42:00.802Z,2.83
2019-01-28T15:45:11.315Z,2.00
2019-01-28T15:48:12.590Z,1.90
2019-01-28T15:51:16.189Z,3.30
2019-01-28T15:54:19.772Z,3.67
2019-01-28T15:57:23.394Z,2.23
2019-01-28T16:00:28.446Z,2.40
2019-01-28T16:03:32.011Z,2.50
2019-01-28T16:06:35.577Z,1.90
2019-01-28T16:09:39.136Z,3.03
2019-01-28T16:12:43.098Z,6.23
2019-01-28T16:15:48.761Z,3.47
2019-01-28T16:18:52.818Z,9.43
2019-01-28T16:21:56.466Z,9.37
2019-01-28T16:25:00.038Z,4.33
2019-01-28T16:28:04.068Z,9.77
2019-01-28T16:31:07.663Z,26.93
2019-01-28T16:34:11.247Z,34.07
2019-01-28T16:37:14.825Z,31.80
2019-01-28T16:40:19.965Z,46.23
2019-01-28T16:43:23.625Z,74.47
2019-01-28T16:46:27.515Z,47.57
2019-01-28T16:49:31.087Z,57.97
2019-01-28T16:52:35.686Z,55.07
2019-01-28T16:55:39.698Z,47.13
2019-01-28T16:58:43.341Z,41.93
2019-01-28T17:01:47.243Z,31.57
2019-01-28T17:04:50.809Z,33.07
2019-01-28T17:07:54.441Z,28.27
2019-01-28T17:10:58.089Z,26.17
2019-01-28T17:14:02.517Z,25.10
2019-01-28T17:17:06.090Z,26.53
2019-01-28T17:20:12.489Z,21.87
2019-01-28T17:23:16.067Z,24.80
2019-01-28T17:26:19.672Z,19.77
2019-01-28T17:29:23.235Z,22.37
2019-01-28T17:32:26.893Z,19.50
2019-01-28T17:35:30.539Z,34.13
2019-01-28T17:38:34.113Z,54.83
2019-01-28T17:41:37.700Z,83.80
2019-01-28T17:44:41.550Z,83.73
2019-01-28T17:47:45.225Z,76.00
2019-01-28T17:50:48.786Z,63.43
2019-01-28T17:53:52.361Z,56.33
2019-01-28T17:56:55.934Z,50.77
2019-01-28T17:59:59.506Z,44.67
2019-01-28T18:03:03.764Z,49.00
2019-01-28T18:06:07.331Z,38.30
2019-01-28T18:09:10.908Z,39.10
2019-01-28T18:12:14.477Z,36.83
2019-01-28T18:15:19.076Z,37.10
2019-01-28T18:18:22.923Z,69.73
2019-01-28T18:21:26.473Z,43.50
2019-01-28T18:24:30.297Z,132.27
2019-01-28T18:27:33.941Z,129.20
2019-01-28T18:30:43.824Z,129.50
2019-01-28T18:33:47.400Z,122.57
2019-01-28T18:36:50.978Z,120.60
2019-01-28T18:39:54.611Z,121.30
2019-01-28T18:42:58.219Z,114.33
2019-01-28T18:46:01.793Z,106.60
2019-01-28T18:49:05.835Z,104.80
2019-01-28T18:52:09.422Z,104.33
2019-01-28T18:55:13.439Z,101.63
2019-01-28T18:58:17.323Z,100.40
2019-01-28T19:01:20.879Z,94.70
2019-01-28T19:04:24.549Z,94.37
2019-01-28T19:07:42.114Z,93.27
2019-01-28T19:10:51.078Z,85.30
2019-01-28T19:14:07.239Z,84.73
2019-01-28T19:17:21.121Z,81.90
2019-01-28T19:20:29.441Z,74.57
2019-01-28T19:23:33.066Z,74.10
2019-01-28T19:26:36.660Z,74.87
2019-01-28T19:29:40.231Z,69.23
2019-01-28T19:32:44.213Z,66.10
2019-01-28T19:35:48.085Z,62.63
2019-01-28T19:38:51.774Z,22.83
2019-01-28T19:41:55.425Z,38.53
2019-01-28T19:44:58.995Z,96.57
2019-01-28T19:48:02.585Z,47.90
2019-01-28T19:51:06.884Z,117.43
2019-01-28T19:54:10.859Z,115.37
2019-01-28T19:57:14.441Z,114.50
2019-01-28T20:00:24.033Z,113.77
2019-01-28T20:03:27.899Z,107.27
2019-01-28T20:06:31.486Z,104.40
2019-01-28T20:09:35.067Z,99.13
2019-01-28T20:12:38.957Z,102.17
2019-01-28T20:15:42.581Z,89.13
2019-01-28T20:18:46.151Z,89.87
2019-01-28T20:21:49.734Z,89.90
2019-01-28T20:24:53.322Z,84.93
2019-01-28T20:27:57.278Z,85.67
2019-01-28T20:31:01.196Z,82.13
2019-01-28T20:34:06.074Z,81.17
2019-01-28T20:37:09.655Z,77.77
2019-01-28T20:40:13.420Z,74.20
2019-01-28T20:43:23.882Z,74.20
2019-01-28T20:46:22.334Z,71.40
2019-01-28T20:49:26.225Z,72.53
2019-01-28T20:52:29.753Z,72.67
2019-01-28T20:55:33.890Z,71.73
2019-01-28T20:58:38.162Z,73.90
2019-01-28T21:01:41.736Z,65.60
2019-01-28T21:04:45.586Z,66.03
2019-01-28T21:07:49.210Z,68.47
2019-01-28T21:10:52.887Z,60.50
2019-01-28T21:13:56.482Z,60.67
2019-01-28T21:17:00.085Z,63.17
2019-01-28T21:20:03.722Z,59.37
2019-01-28T21:23:07.295Z,62.67
2019-01-28T21:26:11.202Z,56.40
2019-01-28T21:29:14.836Z,58.87
2019-01-28T21:32:18.446Z,55.87
2019-01-28T21:35:37.634Z,58.67
2019-01-28T21:38:44.937Z,51.07
2019-01-28T21:41:48.518Z,46.13
2019-01-28T21:44:52.104Z,40.27
2019-01-28T21:47:55.687Z,37.50
2019-01-28T21:50:59.568Z,32.97
2019-01-28T21:54:03.462Z,30.20
2019-01-28T21:57:07.116Z,30.83
2019-01-28T22:00:10.812Z,63.43
2019-01-28T22:03:14.387Z,57.03
2019-01-28T22:06:18.032Z,24.77
2019-01-28T22:09:21.927Z,103.73
2019-01-28T22:12:25.869Z,124.23
2019-01-28T22:15:29.543Z,127.67
2019-01-28T22:18:33.471Z,116.77
2019-01-28T22:21:37.332Z,111.93
2019-01-28T22:24:41.159Z,50.27
2019-01-28T22:27:45.230Z,38.63
2019-01-28T22:30:48.823Z,98.30
2019-01-28T22:33:52.721Z,98.60
2019-01-28T22:36:56.295Z,83.47
2019-01-28T22:39:59.864Z,83.00
2019-01-28T22:43:03.699Z,83.17
2019-01-28T22:46:07.306Z,76.93
2019-01-28T22:49:11.387Z,71.80
2019-01-28T22:52:14.968Z,70.27
2019-01-28T22:55:20.418Z,68.67
2019-01-28T22:58:24.257Z,65.60
2019-01-28T23:01:38.197Z,63.67
2019-01-28T23:04:41.783Z,54.87
2019-01-28T23:07:45.348Z,48.43
2019-01-28T23:10:49.217Z,46.13
2019-01-28T23:13:53.157Z,44.13
2019-01-28T23:16:57.063Z,44.03
2019-01-28T23:20:00.619Z,41.10
2019-01-28T23:23:04.434Z,38.97
2019-01-28T23:26:08.067Z,37.83
2019-01-28T23:29:11.949Z,36.27
2019-01-28T23:32:15.512Z,35.67
2019-01-28T23:35:19.150Z,35.37
2019-01-28T23:38:22.719Z,34.17
2019-01-28T23:41:26.288Z,31.43
2019-01-28T23:44:29.841Z,32.43
2019-01-28T23:47:33.434Z,34.77
2019-01-28T23:50:37.353Z,28.23
2019-01-28T23:53:41.015Z,27.80
2019-01-28T23:56:44.588Z,29.07
2019-01-28T23:59:48.145Z,28.20
